KPLN/PLN METAR and TAF weather

Enter ICAO airport designator
Station Type Date Time Source
KPLN METAR 2019/06/19 07:20 UTC NOAA

KPLN 190720Z AUTO 32006KT 10SM OVC030 15/11 A2986 RMK AO2 T01500111


Station Type Date Time Source
KPLN Decoded METAR 2019/06/19 07:20 UTC NOAA

PELLSTON REGIONAL AIRPORT, MI, United States (KPLN) 45-34N 084-48W 217M
Jun 19, 2019 - 03:20 AM EDT / 2019.06.19 0720 UTC
Wind: from the NW (320 degrees) at 7 MPH (6 KT):0
Visibility: 10 mile(s):0
Sky conditions: overcast
Temperature: 59.0 F (15.0 C)
Dew Point: 52.0 F (11.1 C)
Relative Humidity: 77%
Pressure (altimeter): 29.86 in. Hg (1011 hPa)
ob: KPLN 190720Z AUTO 32006KT 10SM OVC030 15/11 A2986 RMK AO2 T01500111
cycle: 7

Station Type Date Time Source
KPLN TAF 2019/06/19 06:48 UTC NOAA

TAF KPLN 190546Z 1906/2006 00000KT P6SM OVC040
TEMPO 1907/1911 5SM BR OVC012
FM191100 00000KT P6SM OVC012
FM191500 04005KT P6SM BKN016
FM191700 06006KT P6SM BKN030
FM191800 06006KT P6SM BKN050
FM192000 06006KT P6SM SCT070

Example: see airport list